KIKG

Kleberg County Airport

Kingsville, Texas, USA
METAR KIKG 210655Z AUTO 21006KT 10SM CLR 21/20 A2986 RMK AO2 T02140203
Observed Flight Rules
May-21 @ 06:55 UTC (17 minutes ago) Visual Flight Rules
Wind Visibility Clouds
210° at 6 knots 10 miles
  • Clear skies
Temperatures Readings
Current 21°C / 70°F
Dewpoint 20°C / 68°F
Humidity 94%
Altimeter 29.86" Hg
Pressure 1011 hPa
Elevation 40
METAR KIKG 210655Z AUTO 21006KT 10SM CLR 21/20 A2986 RMK AO2 T02140203
Observed Flight Rules
May-21 @ 06:55 UTC
(17 minutes ago)
VFR
Wind Visibility
210° at 6 knots 10 miles
Clouds
  • Clear skies
Temperature Dewpoint
21°C / 70°F 20°C / 68°F
Humidity Altimeter Pressure
94% 29.86" Hg 1011 hPa